Cottonport, Louisiana
Current Conditions -  °F | °C
As of 9:15 AM on Wednesday 22 Oct 2014 (Local Time) from KOPL Reporting Station
Clear Clear  
Wind Chill: 65°   Ceiling: Unl
Heat Index: 65°   Visibility: 10mi
Dew Point: 56°   Wind: 5mph
Humidity: 73%   Direction: 80°E
Pressure: 30.11"   Gusts: NA
Location:  30.98°N, 92.05°W
Report Text: KOPL 221415Z AUTO 08004KT 10SM CLR 19/14 A3011 RMK AO2 T01860136
Loading
Personal Weather Stations






























Interactive Weather Map
Tropical Storm Tracking
New forecast layout! Learn more

10-Day Weather Forecast

Advertisements
Track Severe Weather on mobile